sensor_id;sensor_type;location;lat;lon;timestamp;temperature;humidity
22540;DHT22;11436;50.860;4.334;2022-09-06T00:01:39;19.80;99.90
22540;DHT22;11436;50.860;4.334;2022-09-06T00:04:04;19.90;99.90
22540;DHT22;11436;50.860;4.334;2022-09-06T00:06:30;19.80;99.90
22540;DHT22;11436;50.860;4.334;2022-09-06T00:08:56;19.90;99.90
22540;DHT22;11436;50.860;4.334;2022-09-06T00:11:22;20.00;99.90
22540;DHT22;11436;50.860;4.334;2022-09-06T00:13:47;20.00;99.90
22540;DHT22;11436;50.860;4.334;2022-09-06T00:16:21;20.00;99.90
22540;DHT22;11436;50.860;4.334;2022-09-06T00:18:53;19.90;99.90
22540;DHT22;11436;50.860;4.334;2022-09-06T00:21:29;20.00;99.90
22540;DHT22;11436;50.860;4.334;2022-09-06T00:23:55;19.90;99.90
22540;DHT22;11436;50.860;4.334;2022-09-06T00:26:22;19.90;99.90
22540;DHT22;11436;50.860;4.334;2022-09-06T00:28:48;19.90;99.90
22540;DHT22;11436;50.860;4.334;2022-09-06T00:31:16;19.70;99.90
22540;DHT22;11436;50.860;4.334;2022-09-06T00:33:43;19.80;99.90
22540;DHT22;11436;50.860;4.334;2022-09-06T00:36:10;19.80;99.90
22540;DHT22;11436;50.860;4.334;2022-09-06T00:38:37;19.90;99.90
22540;DHT22;11436;50.860;4.334;2022-09-06T00:41:05;19.90;99.90
22540;DHT22;11436;50.860;4.334;2022-09-06T00:43:31;19.90;99.90
22540;DHT22;11436;50.860;4.334;2022-09-06T00:45:57;19.80;99.90
22540;DHT22;11436;50.860;4.334;2022-09-06T00:48:23;19.90;99.90
22540;DHT22;11436;50.860;4.334;2022-09-06T00:50:52;20.00;99.90
22540;DHT22;11436;50.860;4.334;2022-09-06T00:53:19;19.90;99.90
22540;DHT22;11436;50.860;4.334;2022-09-06T00:55:45;19.80;99.90
22540;DHT22;11436;50.860;4.334;2022-09-06T00:58:11;19.90;99.90
22540;DHT22;11436;50.860;4.334;2022-09-06T01:00:37;19.90;99.90
22540;DHT22;11436;50.860;4.334;2022-09-06T01:03:04;19.80;99.90
22540;DHT22;11436;50.860;4.334;2022-09-06T01:08:43;19.70;99.90
22540;DHT22;11436;50.860;4.334;2022-09-06T01:27:56;19.60;99.90
22540;DHT22;11436;50.860;4.334;2022-09-06T01:30:27;19.60;99.90
22540;DHT22;11436;50.860;4.334;2022-09-06T01:33:20;19.60;99.90
22540;DHT22;11436;50.860;4.334;2022-09-06T01:36:00;19.60;99.90
22540;DHT22;11436;50.860;4.334;2022-09-06T01:38:27;19.70;99.90
22540;DHT22;11436;50.860;4.334;2022-09-06T01:40:53;19.70;99.90
22540;DHT22;11436;50.860;4.334;2022-09-06T01:43:30;19.60;99.90
22540;DHT22;11436;50.860;4.334;2022-09-06T01:54:40;19.40;99.90
22540;DHT22;11436;50.860;4.334;2022-09-06T02:00:09;19.40;99.90
22540;DHT22;11436;50.860;4.334;2022-09-06T02:05:24;19.40;99.90
22540;DHT22;11436;50.860;4.334;2022-09-06T02:07:58;19.40;99.90
22540;DHT22;11436;50.860;4.334;2022-09-06T02:10:33;19.30;99.90
22540;DHT22;11436;50.860;4.334;2022-09-06T02:13:03;19.30;99.90
22540;DHT22;11436;50.860;4.334;2022-09-06T02:15:33;19.40;99.90
22540;DHT22;11436;50.860;4.334;2022-09-06T02:18:11;19.30;99.90
22540;DHT22;11436;50.860;4.334;2022-09-06T02:20:44;19.30;99.90
22540;DHT22;11436;50.860;4.334;2022-09-06T02:23:14;19.30;99.90
22540;DHT22;11436;50.860;4.334;2022-09-06T02:25:46;19.30;99.90
22540;DHT22;11436;50.860;4.334;2022-09-06T02:28:15;19.40;99.90
22540;DHT22;11436;50.860;4.334;2022-09-06T02:30:44;19.40;99.90
22540;DHT22;11436;50.860;4.334;2022-09-06T02:33:16;19.40;99.90
22540;DHT22;11436;50.860;4.334;2022-09-06T02:35:44;19.50;99.90
22540;DHT22;11436;50.860;4.334;2022-09-06T02:38:10;19.50;99.90
22540;DHT22;11436;50.860;4.334;2022-09-06T02:40:37;19.40;99.90
22540;DHT22;11436;50.860;4.334;2022-09-06T02:43:03;19.30;99.90
22540;DHT22;11436;50.860;4.334;2022-09-06T02:45:29;19.30;99.90
22540;DHT22;11436;50.860;4.334;2022-09-06T02:47:55;19.30;99.90
22540;DHT22;11436;50.860;4.334;2022-09-06T02:50:20;19.30;99.90
22540;DHT22;11436;50.860;4.334;2022-09-06T02:53:09;19.30;99.90
22540;DHT22;11436;50.860;4.334;2022-09-06T02:55:38;19.10;99.90
22540;DHT22;11436;50.860;4.334;2022-09-06T02:58:04;19.10;99.90
22540;DHT22;11436;50.860;4.334;2022-09-06T03:00:31;19.10;99.90
22540;DHT22;11436;50.860;4.334;2022-09-06T03:02:57;19.10;99.90
22540;DHT22;11436;50.860;4.334;2022-09-06T03:05:25;19.10;99.90
22540;DHT22;11436;50.860;4.334;2022-09-06T03:07:51;19.00;99.90
22540;DHT22;11436;50.860;4.334;2022-09-06T03:10:19;18.90;99.90
22540;DHT22;11436;50.860;4.334;2022-09-06T03:12:45;18.90;99.90
22540;DHT22;11436;50.860;4.334;2022-09-06T03:15:12;18.90;99.90
22540;DHT22;11436;50.860;4.334;2022-09-06T03:17:39;18.80;99.90
22540;DHT22;11436;50.860;4.334;2022-09-06T03:20:05;18.70;99.90
22540;DHT22;11436;50.860;4.334;2022-09-06T03:22:32;18.80;99.90
22540;DHT22;11436;50.860;4.334;2022-09-06T03:24:57;18.80;99.90
22540;DHT22;11436;50.860;4.334;2022-09-06T03:27:23;18.80;99.90
22540;DHT22;11436;50.860;4.334;2022-09-06T03:29:49;19.00;99.90
22540;DHT22;11436;50.860;4.334;2022-09-06T03:32:15;19.00;99.90
22540;DHT22;11436;50.860;4.334;2022-09-06T03:34:40;19.10;99.90
22540;DHT22;11436;50.860;4.334;2022-09-06T03:37:06;19.10;99.90
22540;DHT22;11436;50.860;4.334;2022-09-06T03:39:32;19.20;99.90
22540;DHT22;11436;50.860;4.334;2022-09-06T03:41:58;19.20;99.90
22540;DHT22;11436;50.860;4.334;2022-09-06T03:44:24;19.20;99.90
22540;DHT22;11436;50.860;4.334;2022-09-06T03:46:50;19.40;99.90
22540;DHT22;11436;50.860;4.334;2022-09-06T03:49:16;19.40;99.90
22540;DHT22;11436;50.860;4.334;2022-09-06T03:51:42;19.40;99.90
22540;DHT22;11436;50.860;4.334;2022-09-06T03:54:08;19.40;99.90
22540;DHT22;11436;50.860;4.334;2022-09-06T03:56:35;19.40;99.90
22540;DHT22;11436;50.860;4.334;2022-09-06T03:59:01;19.50;99.90
22540;DHT22;11436;50.860;4.334;2022-09-06T04:01:27;19.50;99.90
22540;DHT22;11436;50.860;4.334;2022-09-06T04:03:53;19.70;99.90
22540;DHT22;11436;50.860;4.334;2022-09-06T04:06:19;19.70;99.90
22540;DHT22;11436;50.860;4.334;2022-09-06T04:08:44;19.60;99.90
22540;DHT22;11436;50.860;4.334;2022-09-06T04:11:11;19.70;99.90
22540;DHT22;11436;50.860;4.334;2022-09-06T04:13:37;19.70;99.90
22540;DHT22;11436;50.860;4.334;2022-09-06T04:16:04;19.70;99.90
22540;DHT22;11436;50.860;4.334;2022-09-06T04:18:30;19.60;99.90
22540;DHT22;11436;50.860;4.334;2022-09-06T04:20:56;19.60;99.90
22540;DHT22;11436;50.860;4.334;2022-09-06T04:23:24;19.70;99.90
22540;DHT22;11436;50.860;4.334;2022-09-06T04:25:52;19.70;99.90
22540;DHT22;11436;50.860;4.334;2022-09-06T04:28:18;19.70;99.90
22540;DHT22;11436;50.860;4.334;2022-09-06T04:30:45;19.60;99.90
22540;DHT22;11436;50.860;4.334;2022-09-06T04:33:16;19.80;99.90
22540;DHT22;11436;50.860;4.334;2022-09-06T04:35:41;19.70;99.90
22540;DHT22;11436;50.860;4.334;2022-09-06T04:38:07;19.70;99.90
22540;DHT22;11436;50.860;4.334;2022-09-06T04:40:33;19.60;99.90
22540;DHT22;11436;50.860;4.334;2022-09-06T04:42:58;19.60;99.90
22540;DHT22;11436;50.860;4.334;2022-09-06T04:45:24;19.60;99.90
22540;DHT22;11436;50.860;4.334;2022-09-06T04:47:50;19.70;99.90
22540;DHT22;11436;50.860;4.334;2022-09-06T04:50:16;19.70;99.90
22540;DHT22;11436;50.860;4.334;2022-09-06T04:52:42;19.70;99.90
22540;DHT22;11436;50.860;4.334;2022-09-06T04:55:08;19.80;99.90
22540;DHT22;11436;50.860;4.334;2022-09-06T04:57:34;19.70;99.90
22540;DHT22;11436;50.860;4.334;2022-09-06T04:59:59;19.70;99.90
22540;DHT22;11436;50.860;4.334;2022-09-06T05:02:25;19.60;99.90
22540;DHT22;11436;50.860;4.334;2022-09-06T05:04:51;19.70;99.90
22540;DHT22;11436;50.860;4.334;2022-09-06T05:07:18;19.70;99.90
22540;DHT22;11436;50.860;4.334;2022-09-06T05:09:44;19.60;99.90
22540;DHT22;11436;50.860;4.334;2022-09-06T05:12:10;19.60;99.90
22540;DHT22;11436;50.860;4.334;2022-09-06T05:14:36;19.80;99.90
22540;DHT22;11436;50.860;4.334;2022-09-06T05:17:02;19.80;99.90
22540;DHT22;11436;50.860;4.334;2022-09-06T05:19:27;19.80;99.90
22540;DHT22;11436;50.860;4.334;2022-09-06T05:21:53;19.60;99.90
22540;DHT22;11436;50.860;4.334;2022-09-06T05:24:19;19.60;99.90
22540;DHT22;11436;50.860;4.334;2022-09-06T05:26:45;19.60;99.90
22540;DHT22;11436;50.860;4.334;2022-09-06T05:29:11;19.70;99.90
22540;DHT22;11436;50.860;4.334;2022-09-06T05:31:37;19.70;99.90
22540;DHT22;11436;50.860;4.334;2022-09-06T05:34:03;19.70;99.90
22540;DHT22;11436;50.860;4.334;2022-09-06T05:36:29;19.70;99.90
22540;DHT22;11436;50.860;4.334;2022-09-06T05:38:56;19.80;99.90
22540;DHT22;11436;50.860;4.334;2022-09-06T05:41:22;19.80;99.90
22540;DHT22;11436;50.860;4.334;2022-09-06T05:43:48;19.80;99.90
22540;DHT22;11436;50.860;4.334;2022-09-06T05:46:15;19.70;99.90
22540;DHT22;11436;50.860;4.334;2022-09-06T05:48:41;19.70;99.90
22540;DHT22;11436;50.860;4.334;2022-09-06T05:51:11;19.80;99.90
22540;DHT22;11436;50.860;4.334;2022-09-06T05:53:39;19.80;99.90
22540;DHT22;11436;50.860;4.334;2022-09-06T05:56:07;19.80;99.90
22540;DHT22;11436;50.860;4.334;2022-09-06T05:58:33;19.70;99.90
22540;DHT22;11436;50.860;4.334;2022-09-06T06:01:28;19.70;99.90
22540;DHT22;11436;50.860;4.334;2022-09-06T06:06:25;19.80;99.90
22540;DHT22;11436;50.860;4.334;2022-09-06T06:08:51;19.70;99.90
22540;DHT22;11436;50.860;4.334;2022-09-06T06:11:17;19.70;99.90
22540;DHT22;11436;50.860;4.334;2022-09-06T06:13:43;19.80;99.90
22540;DHT22;11436;50.860;4.334;2022-09-06T06:16:13;19.70;99.90
22540;DHT22;11436;50.860;4.334;2022-09-06T06:18:40;19.80;99.90
22540;DHT22;11436;50.860;4.334;2022-09-06T06:21:10;19.80;99.90
22540;DHT22;11436;50.860;4.334;2022-09-06T06:23:37;19.90;99.90
22540;DHT22;11436;50.860;4.334;2022-09-06T06:26:04;19.80;99.90
22540;DHT22;11436;50.860;4.334;2022-09-06T06:28:30;19.90;99.90
22540;DHT22;11436;50.860;4.334;2022-09-06T06:30:56;19.90;99.90
22540;DHT22;11436;50.860;4.334;2022-09-06T06:33:22;19.90;99.90
22540;DHT22;11436;50.860;4.334;2022-09-06T06:35:59;19.80;99.90
22540;DHT22;11436;50.860;4.334;2022-09-06T06:38:36;20.00;99.90
22540;DHT22;11436;50.860;4.334;2022-09-06T06:41:05;20.00;99.90
22540;DHT22;11436;50.860;4.334;2022-09-06T06:43:31;20.10;99.90
22540;DHT22;11436;50.860;4.334;2022-09-06T06:46:10;20.10;99.90
22540;DHT22;11436;50.860;4.334;2022-09-06T06:48:37;20.10;99.90
22540;DHT22;11436;50.860;4.334;2022-09-06T06:51:14;20.10;99.90
22540;DHT22;11436;50.860;4.334;2022-09-06T06:53:41;20.00;99.90
22540;DHT22;11436;50.860;4.334;2022-09-06T06:58:50;20.00;99.90
22540;DHT22;11436;50.860;4.334;2022-09-06T07:01:18;20.10;99.90
22540;DHT22;11436;50.860;4.334;2022-09-06T07:03:47;20.20;99.90
22540;DHT22;11436;50.860;4.334;2022-09-06T07:06:14;20.20;99.90
22540;DHT22;11436;50.860;4.334;2022-09-06T07:08:40;20.20;99.90
22540;DHT22;11436;50.860;4.334;2022-09-06T07:11:07;20.20;99.90
22540;DHT22;11436;50.860;4.334;2022-09-06T07:13:34;20.20;99.90
22540;DHT22;11436;50.860;4.334;2022-09-06T07:16:20;20.30;99.90
22540;DHT22;11436;50.860;4.334;2022-09-06T07:18:49;20.30;99.90
22540;DHT22;11436;50.860;4.334;2022-09-06T07:21:16;20.30;99.90
22540;DHT22;11436;50.860;4.334;2022-09-06T07:23:43;20.30;99.90
22540;DHT22;11436;50.860;4.334;2022-09-06T07:26:13;20.30;99.90
22540;DHT22;11436;50.860;4.334;2022-09-06T07:28:40;20.40;99.90
22540;DHT22;11436;50.860;4.334;2022-09-06T07:31:05;20.50;99.90
22540;DHT22;11436;50.860;4.334;2022-09-06T07:33:34;20.40;99.90
22540;DHT22;11436;50.860;4.334;2022-09-06T07:36:02;20.50;99.90
22540;DHT22;11436;50.860;4.334;2022-09-06T07:38:29;20.50;99.90
22540;DHT22;11436;50.860;4.334;2022-09-06T07:40:57;20.50;99.90
22540;DHT22;11436;50.860;4.334;2022-09-06T07:43:23;20.50;99.90
22540;DHT22;11436;50.860;4.334;2022-09-06T07:46:00;20.50;99.90
22540;DHT22;11436;50.860;4.334;2022-09-06T07:48:31;20.50;99.90
22540;DHT22;11436;50.860;4.334;2022-09-06T07:51:14;20.60;99.90
22540;DHT22;11436;50.860;4.334;2022-09-06T07:53:43;20.80;99.90
22540;DHT22;11436;50.860;4.334;2022-09-06T07:56:10;20.80;99.90
22540;DHT22;11436;50.860;4.334;2022-09-06T07:58:38;20.90;99.90
22540;DHT22;11436;50.860;4.334;2022-09-06T08:01:33;20.90;99.90
22540;DHT22;11436;50.860;4.334;2022-09-06T08:06:26;21.00;99.90
22540;DHT22;11436;50.860;4.334;2022-09-06T08:08:53;20.90;99.90
22540;DHT22;11436;50.860;4.334;2022-09-06T08:11:19;20.90;99.90
22540;DHT22;11436;50.860;4.334;2022-09-06T08:13:48;20.90;99.90
22540;DHT22;11436;50.860;4.334;2022-09-06T08:16:14;20.90;99.90
22540;DHT22;11436;50.860;4.334;2022-09-06T08:18:41;20.90;99.90
22540;DHT22;11436;50.860;4.334;2022-09-06T08:21:12;21.10;99.90
22540;DHT22;11436;50.860;4.334;2022-09-06T08:23:39;21.10;99.90
22540;DHT22;11436;50.860;4.334;2022-09-06T08:26:07;21.20;99.90
22540;DHT22;11436;50.860;4.334;2022-09-06T08:28:33;21.30;99.90
22540;DHT22;11436;50.860;4.334;2022-09-06T08:31:10;21.40;99.90
22540;DHT22;11436;50.860;4.334;2022-09-06T08:33:37;21.40;99.90
22540;DHT22;11436;50.860;4.334;2022-09-06T08:36:04;21.40;99.90
22540;DHT22;11436;50.860;4.334;2022-09-06T08:38:30;21.50;99.90
22540;DHT22;11436;50.860;4.334;2022-09-06T08:41:07;21.50;99.90
22540;DHT22;11436;50.860;4.334;2022-09-06T08:43:34;21.50;99.90
22540;DHT22;11436;50.860;4.334;2022-09-06T08:46:00;21.60;99.90
22540;DHT22;11436;50.860;4.334;2022-09-06T08:48:31;21.70;99.90
22540;DHT22;11436;50.860;4.334;2022-09-06T08:51:15;21.60;99.90
22540;DHT22;11436;50.860;4.334;2022-09-06T08:53:45;21.80;99.90
22540;DHT22;11436;50.860;4.334;2022-09-06T08:56:24;21.80;99.90
22540;DHT22;11436;50.860;4.334;2022-09-06T09:01:28;21.80;99.90
22540;DHT22;11436;50.860;4.334;2022-09-06T09:04:02;21.90;99.90
22540;DHT22;11436;50.860;4.334;2022-09-06T09:06:31;21.90;99.90
22540;DHT22;11436;50.860;4.334;2022-09-06T09:09:08;22.00;99.90
22540;DHT22;11436;50.860;4.334;2022-09-06T09:11:36;22.00;99.90
22540;DHT22;11436;50.860;4.334;2022-09-06T09:14:20;21.90;99.90
22540;DHT22;11436;50.860;4.334;2022-09-06T09:16:52;21.90;99.90
22540;DHT22;11436;50.860;4.334;2022-09-06T09:19:19;22.00;99.90
22540;DHT22;11436;50.860;4.334;2022-09-06T09:21:45;22.00;99.90
22540;DHT22;11436;50.860;4.334;2022-09-06T09:24:12;22.20;99.90
22540;DHT22;11436;50.860;4.334;2022-09-06T09:29:21;22.20;99.90
22540;DHT22;11436;50.860;4.334;2022-09-06T09:31:48;22.10;99.90
22540;DHT22;11436;50.860;4.334;2022-09-06T09:34:31;22.20;99.90
22540;DHT22;11436;50.860;4.334;2022-09-06T09:39:38;22.40;99.90
22540;DHT22;11436;50.860;4.334;2022-09-06T09:42:06;22.70;99.90
22540;DHT22;11436;50.860;4.334;2022-09-06T09:44:33;22.80;99.90
22540;DHT22;11436;50.860;4.334;2022-09-06T09:46:58;22.90;99.90
22540;DHT22;11436;50.860;4.334;2022-09-06T09:52:10;22.90;99.90
22540;DHT22;11436;50.860;4.334;2022-09-06T09:54:40;23.00;99.90
22540;DHT22;11436;50.860;4.334;2022-09-06T09:57:17;23.00;99.90
22540;DHT22;11436;50.860;4.334;2022-09-06T09:59:51;23.00;99.90
22540;DHT22;11436;50.860;4.334;2022-09-06T10:02:37;22.90;99.90
22540;DHT22;11436;50.860;4.334;2022-09-06T10:08:00;23.10;99.90
22540;DHT22;11436;50.860;4.334;2022-09-06T10:10:32;23.20;99.90
22540;DHT22;11436;50.860;4.334;2022-09-06T10:13:08;23.20;99.90
22540;DHT22;11436;50.860;4.334;2022-09-06T10:15:39;23.20;99.90
22540;DHT22;11436;50.860;4.334;2022-09-06T10:18:05;23.30;99.90
22540;DHT22;11436;50.860;4.334;2022-09-06T10:20:51;23.30;99.90
22540;DHT22;11436;50.860;4.334;2022-09-06T10:23:54;23.20;99.90
22540;DHT22;11436;50.860;4.334;2022-09-06T10:26:52;23.30;99.90
22540;DHT22;11436;50.860;4.334;2022-09-06T10:29:44;23.40;99.90
22540;DHT22;11436;50.860;4.334;2022-09-06T10:35:18;23.70;99.90
22540;DHT22;11436;50.860;4.334;2022-09-06T10:38:04;23.70;99.90
22540;DHT22;11436;50.860;4.334;2022-09-06T10:40:59;23.60;99.90
22540;DHT22;11436;50.860;4.334;2022-09-06T10:43:45;23.60;99.90
22540;DHT22;11436;50.860;4.334;2022-09-06T10:46:18;23.80;99.90
22540;DHT22;11436;50.860;4.334;2022-09-06T10:48:47;23.80;99.90
22540;DHT22;11436;50.860;4.334;2022-09-06T10:51:32;23.80;99.90
22540;DHT22;11436;50.860;4.334;2022-09-06T10:54:13;23.90;99.90
22540;DHT22;11436;50.860;4.334;2022-09-06T11:02:07;24.20;99.90
22540;DHT22;11436;50.860;4.334;2022-09-06T11:04:37;24.30;99.90
22540;DHT22;11436;50.860;4.334;2022-09-06T11:07:26;24.40;99.90
22540;DHT22;11436;50.860;4.334;2022-09-06T11:09:58;24.50;99.90
22540;DHT22;11436;50.860;4.334;2022-09-06T11:13:26;24.50;99.90
22540;DHT22;11436;50.860;4.334;2022-09-06T11:24:22;24.70;99.90
22540;DHT22;11436;50.860;4.334;2022-09-06T11:29:40;24.80;99.90
22540;DHT22;11436;50.860;4.334;2022-09-06T11:32:39;24.90;99.90
22540;DHT22;11436;50.860;4.334;2022-09-06T11:35:09;24.80;99.90
22540;DHT22;11436;50.860;4.334;2022-09-06T11:37:45;24.90;99.90
22540;DHT22;11436;50.860;4.334;2022-09-06T11:40:24;25.20;99.90
22540;DHT22;11436;50.860;4.334;2022-09-06T11:45:21;25.20;99.90
22540;DHT22;11436;50.860;4.334;2022-09-06T11:53:28;25.50;99.90
22540;DHT22;11436;50.860;4.334;2022-09-06T11:56:09;25.60;99.90
22540;DHT22;11436;50.860;4.334;2022-09-06T11:58:52;25.80;99.90
22540;DHT22;11436;50.860;4.334;2022-09-06T12:08:53;26.20;99.90
22540;DHT22;11436;50.860;4.334;2022-09-06T12:11:37;26.30;99.90
22540;DHT22;11436;50.860;4.334;2022-09-06T12:19:44;26.60;99.90
22540;DHT22;11436;50.860;4.334;2022-09-06T12:27:30;26.90;99.90
22540;DHT22;11436;50.860;4.334;2022-09-06T12:30:06;26.90;99.90
22540;DHT22;11436;50.860;4.334;2022-09-06T12:35:11;26.80;99.90
22540;DHT22;11436;50.860;4.334;2022-09-06T12:37:52;27.40;99.90
22540;DHT22;11436;50.860;4.334;2022-09-06T12:40:19;28.50;99.90
22540;DHT22;11436;50.860;4.334;2022-09-06T12:42:47;29.60;99.90
22540;DHT22;11436;50.860;4.334;2022-09-06T12:45:14;30.30;99.90
22540;DHT22;11436;50.860;4.334;2022-09-06T12:47:40;30.10;99.90
22540;DHT22;11436;50.860;4.334;2022-09-06T12:53:02;32.00;99.90
22540;DHT22;11436;50.860;4.334;2022-09-06T12:55:35;32.10;99.90
22540;DHT22;11436;50.860;4.334;2022-09-06T12:58:06;32.10;99.90
22540;DHT22;11436;50.860;4.334;2022-09-06T13:00:40;32.90;99.90
22540;DHT22;11436;50.860;4.334;2022-09-06T13:03:24;32.60;99.90
22540;DHT22;11436;50.860;4.334;2022-09-06T13:05:53;32.30;99.90
22540;DHT22;11436;50.860;4.334;2022-09-06T13:08:41;31.80;99.90
22540;DHT22;11436;50.860;4.334;2022-09-06T13:11:12;31.90;99.90
22540;DHT22;11436;50.860;4.334;2022-09-06T13:13:51;32.90;99.90
22540;DHT22;11436;50.860;4.334;2022-09-06T13:16:22;34.00;99.90
22540;DHT22;11436;50.860;4.334;2022-09-06T13:18:48;32.80;99.90
22540;DHT22;11436;50.860;4.334;2022-09-06T13:21:25;32.20;99.90
22540;DHT22;11436;50.860;4.334;2022-09-06T13:23:52;32.40;99.90
22540;DHT22;11436;50.860;4.334;2022-09-06T13:26:38;32.30;99.90
22540;DHT22;11436;50.860;4.334;2022-09-06T13:31:52;33.20;99.90
22540;DHT22;11436;50.860;4.334;2022-09-06T13:34:25;32.90;99.90
22540;DHT22;11436;50.860;4.334;2022-09-06T13:37:06;33.90;99.90
22540;DHT22;11436;50.860;4.334;2022-09-06T13:39:37;33.50;99.90
22540;DHT22;11436;50.860;4.334;2022-09-06T13:42:22;32.50;99.90
22540;DHT22;11436;50.860;4.334;2022-09-06T13:44:49;31.90;99.90
22540;DHT22;11436;50.860;4.334;2022-09-06T13:47:18;31.30;99.90
22540;DHT22;11436;50.860;4.334;2022-09-06T13:49:43;31.20;99.90
22540;DHT22;11436;50.860;4.334;2022-09-06T13:52:09;31.00;99.90
22540;DHT22;11436;50.860;4.334;2022-09-06T13:54:35;31.10;99.90
22540;DHT22;11436;50.860;4.334;2022-09-06T13:57:01;31.50;99.90
22540;DHT22;11436;50.860;4.334;2022-09-06T13:59:27;32.10;99.90
22540;DHT22;11436;50.860;4.334;2022-09-06T14:02:05;32.30;99.90
22540;DHT22;11436;50.860;4.334;2022-09-06T14:04:32;31.80;99.90
22540;DHT22;11436;50.860;4.334;2022-09-06T14:06:59;31.90;99.90
22540;DHT22;11436;50.860;4.334;2022-09-06T14:09:25;32.20;99.90
22540;DHT22;11436;50.860;4.334;2022-09-06T14:11:50;33.00;99.90
22540;DHT22;11436;50.860;4.334;2022-09-06T14:14:17;32.90;99.90
22540;DHT22;11436;50.860;4.334;2022-09-06T14:16:44;33.10;99.90
22540;DHT22;11436;50.860;4.334;2022-09-06T14:19:11;32.90;99.90
22540;DHT22;11436;50.860;4.334;2022-09-06T14:21:36;32.60;99.90
22540;DHT22;11436;50.860;4.334;2022-09-06T14:24:02;32.30;99.90
22540;DHT22;11436;50.860;4.334;2022-09-06T14:26:29;31.60;99.90
22540;DHT22;11436;50.860;4.334;2022-09-06T14:28:55;30.30;99.90
22540;DHT22;11436;50.860;4.334;2022-09-06T14:31:23;30.30;99.90
22540;DHT22;11436;50.860;4.334;2022-09-06T14:33:51;30.00;99.90
22540;DHT22;11436;50.860;4.334;2022-09-06T14:36:19;29.70;99.90
22540;DHT22;11436;50.860;4.334;2022-09-06T14:38:46;29.30;99.90
22540;DHT22;11436;50.860;4.334;2022-09-06T14:41:14;29.00;99.90
22540;DHT22;11436;50.860;4.334;2022-09-06T14:43:46;29.10;99.90
22540;DHT22;11436;50.860;4.334;2022-09-06T14:46:13;29.20;99.90
22540;DHT22;11436;50.860;4.334;2022-09-06T14:48:41;28.80;99.90
22540;DHT22;11436;50.860;4.334;2022-09-06T14:51:19;28.60;99.90
22540;DHT22;11436;50.860;4.334;2022-09-06T14:53:53;28.50;99.90
22540;DHT22;11436;50.860;4.334;2022-09-06T14:56:20;28.20;99.90
22540;DHT22;11436;50.860;4.334;2022-09-06T14:58:46;27.90;99.90
22540;DHT22;11436;50.860;4.334;2022-09-06T15:03:44;27.50;99.90
22540;DHT22;11436;50.860;4.334;2022-09-06T15:06:16;27.40;99.90
22540;DHT22;11436;50.860;4.334;2022-09-06T15:08:43;27.40;99.90
22540;DHT22;11436;50.860;4.334;2022-09-06T15:11:09;27.40;99.90
22540;DHT22;11436;50.860;4.334;2022-09-06T15:13:35;27.40;99.90
22540;DHT22;11436;50.860;4.334;2022-09-06T15:16:03;27.30;99.90
22540;DHT22;11436;50.860;4.334;2022-09-06T15:18:29;27.30;99.90
22540;DHT22;11436;50.860;4.334;2022-09-06T15:20:55;27.50;99.90
22540;DHT22;11436;50.860;4.334;2022-09-06T15:23:21;27.70;99.90
22540;DHT22;11436;50.860;4.334;2022-09-06T15:25:51;27.70;99.90
22540;DHT22;11436;50.860;4.334;2022-09-06T15:28:18;27.80;99.90
22540;DHT22;11436;50.860;4.334;2022-09-06T15:30:45;27.60;99.90
22540;DHT22;11436;50.860;4.334;2022-09-06T15:33:11;27.50;99.90
22540;DHT22;11436;50.860;4.334;2022-09-06T15:35:40;27.50;99.90
22540;DHT22;11436;50.860;4.334;2022-09-06T15:38:07;27.50;99.90
22540;DHT22;11436;50.860;4.334;2022-09-06T15:40:33;27.30;99.90
22540;DHT22;11436;50.860;4.334;2022-09-06T15:42:59;27.20;99.90
22540;DHT22;11436;50.860;4.334;2022-09-06T15:45:25;27.20;99.90
22540;DHT22;11436;50.860;4.334;2022-09-06T15:47:53;27.40;99.90
22540;DHT22;11436;50.860;4.334;2022-09-06T15:50:19;27.70;99.90
22540;DHT22;11436;50.860;4.334;2022-09-06T15:52:45;28.00;99.90
22540;DHT22;11436;50.860;4.334;2022-09-06T15:55:11;28.40;99.90
22540;DHT22;11436;50.860;4.334;2022-09-06T15:57:55;28.70;99.90
22540;DHT22;11436;50.860;4.334;2022-09-06T16:00:21;28.90;99.90
22540;DHT22;11436;50.860;4.334;2022-09-06T16:02:48;28.90;99.90
22540;DHT22;11436;50.860;4.334;2022-09-06T16:05:14;29.10;99.90
22540;DHT22;11436;50.860;4.334;2022-09-06T16:07:40;28.90;99.90
22540;DHT22;11436;50.860;4.334;2022-09-06T16:10:10;28.60;99.90
22540;DHT22;11436;50.860;4.334;2022-09-06T16:12:39;28.30;99.90
22540;DHT22;11436;50.860;4.334;2022-09-06T16:15:06;28.20;99.90
22540;DHT22;11436;50.860;4.334;2022-09-06T16:17:33;28.10;99.90
22540;DHT22;11436;50.860;4.334;2022-09-06T16:19:59;27.90;99.90
22540;DHT22;11436;50.860;4.334;2022-09-06T16:22:26;27.70;99.90
22540;DHT22;11436;50.860;4.334;2022-09-06T16:24:52;27.70;99.90
22540;DHT22;11436;50.860;4.334;2022-09-06T16:27:18;27.80;99.90
22540;DHT22;11436;50.860;4.334;2022-09-06T16:29:44;27.70;99.90
22540;DHT22;11436;50.860;4.334;2022-09-06T16:32:10;27.60;99.90
22540;DHT22;11436;50.860;4.334;2022-09-06T16:34:36;27.70;99.90
22540;DHT22;11436;50.860;4.334;2022-09-06T16:37:03;27.70;99.90
22540;DHT22;11436;50.860;4.334;2022-09-06T16:39:35;27.80;99.90
22540;DHT22;11436;50.860;4.334;2022-09-06T16:42:02;27.80;99.90
22540;DHT22;11436;50.860;4.334;2022-09-06T16:44:28;27.80;99.90
22540;DHT22;11436;50.860;4.334;2022-09-06T16:46:54;27.80;99.90
22540;DHT22;11436;50.860;4.334;2022-09-06T16:49:21;27.90;99.90
22540;DHT22;11436;50.860;4.334;2022-09-06T16:51:49;27.90;99.90
22540;DHT22;11436;50.860;4.334;2022-09-06T16:54:15;27.90;99.90
22540;DHT22;11436;50.860;4.334;2022-09-06T16:56:42;28.00;99.90
22540;DHT22;11436;50.860;4.334;2022-09-06T16:59:09;27.90;99.90
22540;DHT22;11436;50.860;4.334;2022-09-06T17:01:36;28.00;99.90
22540;DHT22;11436;50.860;4.334;2022-09-06T17:04:02;27.80;99.90
22540;DHT22;11436;50.860;4.334;2022-09-06T17:06:29;27.70;99.90
22540;DHT22;11436;50.860;4.334;2022-09-06T17:08:56;27.70;99.90
22540;DHT22;11436;50.860;4.334;2022-09-06T17:11:26;27.60;99.90
22540;DHT22;11436;50.860;4.334;2022-09-06T17:13:53;27.60;99.90
22540;DHT22;11436;50.860;4.334;2022-09-06T17:16:20;27.60;99.90
22540;DHT22;11436;50.860;4.334;2022-09-06T17:19:05;27.60;99.90
22540;DHT22;11436;50.860;4.334;2022-09-06T17:21:32;27.60;99.90
22540;DHT22;11436;50.860;4.334;2022-09-06T17:23:58;27.70;99.90
22540;DHT22;11436;50.860;4.334;2022-09-06T17:26:27;27.90;99.90
22540;DHT22;11436;50.860;4.334;2022-09-06T17:28:55;27.70;99.90
22540;DHT22;11436;50.860;4.334;2022-09-06T17:31:23;27.40;99.90
22540;DHT22;11436;50.860;4.334;2022-09-06T17:33:52;27.10;99.90
22540;DHT22;11436;50.860;4.334;2022-09-06T17:36:24;26.90;99.90
22540;DHT22;11436;50.860;4.334;2022-09-06T17:38:52;26.70;99.90